Time;durP1;ratioP1;P1;durP2;ratioP2;P2;SDS_P1;SDS_P2;PMS_P1;PMS_P2;Temp;Humidity;BMP_temperature;BMP_pressure;BME280_temperature;BME280_humidity;BME280_pressure;Samples;Min_cycle;Max_cycle;Signal;HPM_P1;HPM_P2
2023/09/21 00:02:38;;;;;;;5.37;2.87;;;13.70;1.00;;;;;;5013550;28;20857;-79
2023/09/21 00:05:04;;;;;;;5.33;2.83;;;13.60;1.00;;;;;;5045028;28;20424;-79
2023/09/21 00:07:32;;;;;;;8.00;2.53;;;13.50;1.00;;;;;;5026142;28;20431;-79
2023/09/21 00:10:05;;;;;;;7.60;2.63;;;13.50;1.00;;;;;;5045684;28;20434;-79
2023/09/21 00:12:49;;;;;;;4.93;3.17;;;13.60;1.00;;;;;;5020082;28;20930;-79
2023/09/21 00:15:20;;;;;;;5.07;3.20;;;13.50;1.00;;;;;;5013707;28;20432;-80
2023/09/21 00:17:53;;;;;;;3.60;2.77;;;13.50;1.00;;;;;;5032797;28;20393;-79
2023/09/21 00:23:38;;;;;;;7.03;4.10;;;13.60;1.00;;;;;;4980809;28;20408;-80
2023/09/21 00:26:19;;;;;;;9.40;3.37;;;13.50;1.00;;;;;;4972174;28;20494;-79
2023/09/21 00:28:56;;;;;;;8.07;3.20;;;13.50;1.00;;;;;;4960149;28;20983;-79
2023/09/21 00:31:21;;;;;;;6.93;2.80;;;13.40;1.00;;;;;;4967327;28;20439;-79
2023/09/21 00:33:47;;;;;;;4.23;2.53;;;13.40;1.00;;;;;;4972423;28;20932;-80
2023/09/21 00:36:16;;;;;;;4.20;2.80;;;13.40;1.00;;;;;;4970462;28;20692;-80
2023/09/21 00:38:42;;;;;;;6.07;2.90;;;13.30;1.00;;;;;;4970610;28;20182;-80
2023/09/21 00:41:14;;;;;;;3.77;3.07;;;13.40;1.00;;;;;;4972012;28;20411;-80
2023/09/21 00:43:44;;;;;;;7.17;3.07;;;13.40;1.00;;;;;;4962674;28;20959;-80
2023/09/21 00:46:10;;;;;;;3.23;2.90;;;13.40;1.00;;;;;;4974841;28;21113;-80
2023/09/21 00:48:42;;;;;;;4.30;3.13;;;13.40;1.00;;;;;;4963491;28;20422;-80
2023/09/21 00:51:20;;;;;;;4.40;2.63;;;13.30;1.00;;;;;;4969912;28;20467;-80
2023/09/21 00:53:49;;;;;;;7.47;3.10;;;13.30;1.00;;;;;;4969017;28;20762;-80
2023/09/21 00:56:31;;;;;;;5.77;3.13;;;13.30;1.00;;;;;;4980380;28;20609;-80
2023/09/21 00:59:15;;;;;;;5.80;2.83;;;13.30;1.00;;;;;;4993079;28;20477;-80
2023/09/21 01:01:50;;;;;;;3.10;2.30;;;13.20;1.00;;;;;;5048490;28;20533;-80
2023/09/21 01:04:21;;;;;;;3.33;2.40;;;13.20;1.00;;;;;;5037946;28;20389;-79
2023/09/21 01:06:47;;;;;;;11.50;3.33;;;13.10;1.00;;;;;;5022293;28;20930;-79
2023/09/21 01:09:13;;;;;;;5.30;2.40;;;13.10;1.00;;;;;;5023068;28;20402;-79
2023/09/21 01:11:44;;;;;;;5.23;3.07;;;13.10;1.00;;;;;;5023009;28;20180;-79
2023/09/21 01:14:32;;;;;;;3.60;2.87;;;13.30;1.00;;;;;;5031184;28;20176;-79
2023/09/21 01:17:31;;;;;;;5.90;2.97;;;13.10;1.00;;;;;;5028848;28;20905;-79
2023/09/21 01:20:13;;;;;;;11.37;2.60;;;13.00;1.00;;;;;;5032742;28;20398;-79
2023/09/21 01:22:50;;;;;;;5.27;2.80;;;12.90;1.00;;;;;;5038647;28;20429;-79
2023/09/21 01:25:32;;;;;;;11.20;3.47;;;12.80;1.00;;;;;;5035731;28;20442;-79
2023/09/21 01:28:09;;;;;;;5.23;3.40;;;12.90;1.00;;;;;;5031509;28;20393;-79
2023/09/21 01:30:53;;;;;;;5.50;2.63;;;12.90;1.00;;;;;;5034839;28;20759;-79
2023/09/21 01:33:26;;;;;;;3.77;3.07;;;12.90;1.00;;;;;;5036046;28;20383;-79
2023/09/21 01:36:37;;;;;;;3.70;2.80;;;12.90;1.00;;;;;;5026469;28;21038;-80
2023/09/21 01:39:09;;;;;;;3.93;2.50;;;12.90;1.00;;;;;;5052255;28;20394;-79
2023/09/21 01:41:35;;;;;;;4.13;2.77;;;12.80;1.00;;;;;;5030520;28;20431;-79
2023/09/21 01:44:09;;;;;;;8.60;3.00;;;13.10;1.00;;;;;;5022943;28;20435;-80
2023/09/21 01:47:01;;;;;;;6.90;2.90;;;12.80;1.00;;;;;;5036906;28;20441;-80
2023/09/21 01:49:50;;;;;;;9.03;2.93;;;12.80;1.00;;;;;;5044964;28;20443;-80
2023/09/21 01:52:21;;;;;;;3.60;2.70;;;12.80;1.00;;;;;;5022658;28;20533;-80
2023/09/21 01:54:50;;;;;;;6.83;2.93;;;12.80;1.00;;;;;;5037229;28;20425;-80
2023/09/21 01:57:19;;;;;;;7.43;3.37;;;13.00;1.00;;;;;;5031883;28;20443;-80
2023/09/21 01:59:50;;;;;;;5.53;3.17;;;12.70;1.00;;;;;;5038262;28;20408;-80
2023/09/21 02:02:20;;;;;;;5.80;3.10;;;12.70;1.00;;;;;;5044123;28;20409;-80
2023/09/21 02:04:50;;;;;;;4.23;3.03;;;12.70;1.00;;;;;;5050674;28;20388;-80
2023/09/21 02:07:16;;;;;;;3.63;3.27;;;12.70;1.00;;;;;;5041978;28;20412;-80
2023/09/21 02:09:49;;;;;;;6.00;3.20;;;12.60;1.00;;;;;;5022493;28;20935;-80
2023/09/21 02:12:19;;;;;;;4.73;2.73;;;12.50;1.00;;;;;;5021181;28;20416;-80
2023/09/21 02:14:50;;;;;;;2.70;2.40;;;12.60;1.00;;;;;;5041633;28;20439;-80
2023/09/21 02:17:23;;;;;;;4.80;3.40;;;12.60;1.00;;;;;;5048018;28;20551;-80
2023/09/21 02:19:49;;;;;;;6.53;2.70;;;12.60;1.00;;;;;;5032930;28;20502;-79
2023/09/21 02:22:20;;;;;;;3.80;2.80;;;12.60;1.00;;;;;;5043222;28;20445;-79
2023/09/21 02:24:50;;;;;;;5.70;3.47;;;12.60;1.00;;;;;;5032466;28;20221;-79
2023/09/21 02:27:21;;;;;;;4.77;3.40;;;12.60;1.00;;;;;;5039099;28;20889;-79
2023/09/21 02:29:49;;;;;;;5.83;3.10;;;12.50;1.00;;;;;;5039874;28;20399;-79
2023/09/21 02:32:20;;;;;;;11.13;3.50;;;12.50;1.00;;;;;;5027057;28;20422;-80
2023/09/21 02:34:50;;;;;;;3.93;3.10;;;12.50;1.00;;;;;;5043705;28;20411;-79
2023/09/21 02:37:20;;;;;;;5.17;3.27;;;12.60;1.00;;;;;;5035233;28;20419;-79
2023/09/21 02:39:49;;;;;;;5.50;3.50;;;12.50;1.00;;;;;;5043626;28;20406;-79
2023/09/21 02:42:20;;;;;;;5.43;3.40;;;12.50;1.00;;;;;;5022824;28;20407;-79
2023/09/21 02:44:49;;;;;;;6.13;3.20;;;12.50;1.00;;;;;;5029262;28;20419;-79
2023/09/21 02:47:20;;;;;;;6.47;3.43;;;12.50;1.00;;;;;;5034076;28;20454;-79
2023/09/21 02:49:51;;;;;;;6.70;3.60;;;12.50;1.00;;;;;;5047627;28;20568;-79
2023/09/21 02:52:47;;;;;;;4.20;2.53;;;12.50;1.00;;;;;;5031351;28;20454;-80
2023/09/21 02:55:20;;;;;;;6.57;3.00;;;12.50;1.00;;;;;;5040826;28;20511;-79
2023/09/21 03:01:15;;;;;;;9.93;3.77;;;12.40;1.00;;;;;;5025273;28;20849;-86
2023/09/21 03:04:19;;;;;;;4.40;3.30;;;12.40;1.00;;;;;;5033726;28;20378;-86
2023/09/21 03:06:46;;;;;;;7.97;3.43;;;12.50;1.00;;;;;;5023088;28;20418;-85
2023/09/21 03:09:11;;;;;;;6.10;3.43;;;12.40;1.00;;;;;;5025052;28;20489;-86
2023/09/21 03:11:39;;;;;;;5.57;3.00;;;12.50;1.00;;;;;;5026956;28;20397;-86
2023/09/21 03:14:22;;;;;;;3.40;2.63;;;12.40;1.00;;;;;;5030905;28;20242;-85
2023/09/21 03:16:58;;;;;;;3.80;2.60;;;12.50;1.00;;;;;;5032059;28;20451;-86
2023/09/21 03:19:25;;;;;;;7.00;3.33;;;12.40;1.00;;;;;;5034927;28;20396;-85
2023/09/21 03:22:19;;;;;;;3.27;2.80;;;12.40;1.00;;;;;;5022718;28;20420;-91
2023/09/21 03:28:15;;;;;;;5.07;3.37;;;12.50;1.00;;;;;;5014442;28;20443;-92
2023/09/21 03:31:19;;;;;;;4.80;3.30;;;12.50;1.00;;;;;;5024524;28;20441;-91
2023/09/21 03:34:26;;;;;;;3.43;3.10;;;12.60;1.00;;;;;;5037526;28;20451;-91
2023/09/21 03:37:31;;;;;;;6.00;3.73;;;12.60;1.00;;;;;;5028430;28;20425;-85
2023/09/21 03:40:19;;;;;;;3.53;3.00;;;12.60;1.00;;;;;;5038587;28;20427;-85
2023/09/21 03:43:22;;;;;;;9.03;3.70;;;12.60;1.00;;;;;;5014684;28;20402;-85
2023/09/21 03:46:23;;;;;;;4.90;3.60;;;12.70;1.00;;;;;;5033344;28;20895;-86
2023/09/21 03:49:04;;;;;;;7.83;3.10;;;;;;;;;;5032211;28;20405;-86
2023/09/21 03:51:31;;;;;;;8.87;3.47;;;12.80;1.00;;;;;;5024219;28;20404;-91
2023/09/21 03:54:19;;;;;;;3.07;2.80;;;12.80;1.00;;;;;;5053077;28;20493;-91
2023/09/21 03:57:01;;;;;;;4.20;3.00;;;12.80;1.00;;;;;;5033661;28;20542;-91
2023/09/21 03:59:27;;;;;;;5.07;3.10;;;12.90;1.00;;;;;;5033859;28;20504;-91
2023/09/21 04:02:22;;;;;;;7.53;3.73;;;12.80;1.00;;;;;;5033134;28;20888;-91
2023/09/21 04:05:05;;;;;;;7.33;3.20;;;12.80;1.00;;;;;;5033305;28;20238;-91
2023/09/21 04:07:49;;;;;;;11.93;3.00;;;12.80;1.00;;;;;;5044215;28;20469;-92
2023/09/21 04:10:32;;;;;;;6.03;3.10;;;12.70;1.00;;;;;;5032807;28;20427;-92
2023/09/21 04:17:13;;;;;;;6.90;3.30;;;12.80;1.00;;;;;;5024081;28;20462;-88
2023/09/21 04:20:15;;;;;;;5.93;2.93;;;12.90;1.00;;;;;;5030863;28;20431;-89
2023/09/21 04:26:19;;;;;;;3.47;2.73;;;13.00;1.00;;;;;;5025100;28;20411;-86
2023/09/21 04:29:19;;;;;;;8.93;3.33;;;13.20;1.00;;;;;;5015847;28;20474;-86
2023/09/21 04:32:38;;;;;;;3.57;2.97;;;13.30;1.00;;;;;;5022767;28;20384;-87
2023/09/21 04:39:01;;;;;;;6.30;3.30;;;13.40;1.00;;;;;;5048472;28;20400;-87
2023/09/21 04:41:27;;;;;;;4.60;3.30;;;13.60;1.00;;;;;;5039278;28;20396;-86
2023/09/21 04:44:20;;;;;;;5.10;3.20;;;13.80;1.00;;;;;;5039106;28;20443;-87
2023/09/21 04:46:49;;;;;;;8.73;2.77;;;13.70;1.00;;;;;;5029436;28;20485;-86
2023/09/21 04:49:21;;;;;;;4.87;3.00;;;13.80;1.00;;;;;;5035953;28;20418;-86
2023/09/21 04:58:55;;;;;;;5.07;3.20;;;14.00;1.00;;;;;;5053115;28;20498;-90
2023/09/21 05:01:24;;;;;;;8.10;3.17;;;14.00;1.00;;;;;;5036726;28;20435;-89
2023/09/21 05:03:50;;;;;;;4.67;3.33;;;14.10;1.00;;;;;;5036061;28;20404;-90
2023/09/21 05:06:32;;;;;;;5.87;2.90;;;14.20;1.00;;;;;;5037594;28;20489;-89
2023/09/21 05:09:19;;;;;;;4.30;3.30;;;14.20;1.00;;;;;;5035788;28;20796;-89
2023/09/21 05:11:46;;;;;;;10.17;3.40;;;14.30;1.00;;;;;;5024416;28;20438;-89
2023/09/21 05:17:50;;;;;;;5.20;2.97;;;;;;;;;;5054809;28;20400;-89
2023/09/21 05:20:49;;;;;;;5.57;3.30;;;14.40;1.00;;;;;;5034600;28;20395;-89
2023/09/21 05:23:20;;;;;;;10.43;3.47;;;14.50;1.00;;;;;;5032247;28;20405;-86
2023/09/21 05:25:49;;;;;;;6.40;3.17;;;14.60;1.00;;;;;;5029653;28;20394;-87
2023/09/21 05:28:20;;;;;;;4.17;3.20;;;14.60;1.00;;;;;;5029846;28;20473;-86
2023/09/21 05:30:50;;;;;;;7.73;3.47;;;14.60;1.00;;;;;;5033720;28;20443;-86
2023/09/21 05:33:20;;;;;;;5.50;3.40;;;14.70;1.00;;;;;;5038726;28;20390;-87
2023/09/21 05:36:19;;;;;;;6.67;3.40;;;14.70;1.00;;;;;;5036397;28;20505;-86
2023/09/21 05:38:49;;;;;;;7.77;3.40;;;14.70;1.00;;;;;;5045446;28;20494;-86
2023/09/21 05:41:20;;;;;;;4.87;2.90;;;14.70;1.00;;;;;;5035299;28;20757;-87
2023/09/21 05:43:46;;;;;;;10.23;3.90;;;14.80;1.00;;;;;;5034117;28;20431;-87
2023/09/21 05:46:12;;;;;;;5.80;3.40;;;14.80;1.00;;;;;;5033930;28;20401;-88
2023/09/21 05:48:38;;;;;;;4.90;3.10;;;14.90;1.00;;;;;;5034683;28;20785;-87
2023/09/21 05:51:10;;;;;;;6.40;3.30;;;14.90;1.00;;;;;;5031537;28;20244;-86
2023/09/21 05:54:20;;;;;;;4.17;3.60;;;14.90;1.00;;;;;;5035504;28;20428;-87
2023/09/21 05:56:51;;;;;;;7.13;4.03;;;15.00;1.00;;;;;;5037391;28;20553;-86
2023/09/21 05:59:22;;;;;;;4.33;3.23;;;15.00;1.00;;;;;;5047095;28;20425;-85
2023/09/21 06:01:50;;;;;;;6.23;3.87;;;15.00;1.00;;;;;;5037582;28;20496;-85
2023/09/21 06:04:21;;;;;;;5.30;3.40;;;15.00;1.00;;;;;;5043879;28;20422;-86
2023/09/21 06:07:19;;;;;;;15.20;3.80;;;15.10;1.00;;;;;;5036896;28;20426;-89
2023/09/21 06:09:50;;;;;;;5.00;3.60;;;15.10;1.00;;;;;;5032989;28;20405;-90
2023/09/21 06:12:20;;;;;;;4.23;3.20;;;15.20;1.00;;;;;;5033083;28;20952;-90
2023/09/21 06:14:50;;;;;;;6.03;3.97;;;15.20;1.00;;;;;;5049748;28;20926;-90
2023/09/21 06:17:20;;;;;;;6.10;3.30;;;15.30;1.00;;;;;;5044025;28;20421;-90
2023/09/21 06:19:53;;;;;;;4.00;2.90;;;15.40;1.00;;;;;;5049764;28;20910;-90
2023/09/21 06:25:50;;;;;;;5.00;3.40;;;15.60;1.00;;;;;;5039800;28;20406;-86
2023/09/21 06:28:21;;;;;;;9.93;3.40;;;15.70;1.00;;;;;;5027836;28;20679;-86
2023/09/21 06:30:51;;;;;;;4.63;3.80;;;15.90;1.00;;;;;;5031687;28;20443;-86
2023/09/21 06:33:23;;;;;;;7.57;4.07;;;16.00;1.00;;;;;;5031289;28;20431;-86
2023/09/21 06:35:50;;;;;;;6.83;3.00;;;16.10;1.00;;;;;;5025833;28;20455;-86
2023/09/21 06:42:07;;;;;;;5.87;3.50;;;16.20;1.00;;;;;;5023563;28;20754;-90
2023/09/21 06:48:19;;;;;;;4.33;3.53;;;16.50;1.00;;;;;;5029444;28;20392;-90
2023/09/21 06:51:19;;;;;;;6.10;3.00;;;16.50;1.00;;;;;;5027923;28;20485;-90
2023/09/21 06:54:19;;;;;;;6.13;3.50;;;16.60;1.00;;;;;;5034523;28;20449;-89
2023/09/21 07:00:09;;;;;;;6.33;3.07;;;16.80;1.00;;;;;;5023057;28;20490;-89
2023/09/21 07:05:57;;;;;;;5.43;3.50;;;17.00;1.00;;;;;;5034562;28;20460;-90
2023/09/21 07:11:45;;;;;;;6.83;3.00;;;17.30;1.00;;;;;;5039452;28;20206;-86
2023/09/21 07:21:19;;;;;;;3.70;2.90;;;17.80;1.00;;;;;;5014593;28;20425;-86
2023/09/21 07:27:51;;;;;;;9.83;3.13;;;18.00;1.00;;;;;;5025125;28;20830;-86
2023/09/21 07:30:32;;;;;;;5.70;3.33;;;18.10;1.00;;;;;;5032744;28;20428;-86
2023/09/21 07:36:20;;;;;;;7.03;3.57;;;18.60;1.00;;;;;;5030916;28;20452;-86
2023/09/21 07:42:07;;;;;;;7.20;3.00;;;19.10;1.00;;;;;;5029865;28;20187;-89
2023/09/21 07:47:55;;;;;;;5.87;3.20;;;19.50;1.00;;;;;;5045797;28;20238;-89
2023/09/21 07:53:50;;;;;;;7.07;3.40;;;19.90;1.00;;;;;;5031394;28;20662;-86
2023/09/21 07:59:37;;;;;;;4.03;3.13;;;19.90;1.00;;;;;;5042414;28;20400;-86
2023/09/21 08:05:26;;;;;;;13.87;3.03;;;19.80;1.00;;;;;;5051123;28;20214;-86
2023/09/21 08:11:13;;;;;;;7.27;2.93;;;19.70;1.00;;;;;;5032476;28;20443;-86
2023/09/21 08:13:39;;;;;;;5.87;2.93;;;19.80;1.00;;;;;;5027260;28;20918;-86
2023/09/21 08:16:14;;;;;;;6.80;3.00;;;19.80;1.00;;;;;;5032462;28;20198;-86
2023/09/21 08:19:02;;;;;;;12.07;3.23;;;19.90;1.00;;;;;;5054546;28;20785;-86
2023/09/21 08:21:55;;;;;;;4.97;3.20;;;20.00;1.00;;;;;;5049820;28;20509;-86
2023/09/21 08:27:43;;;;;;;10.07;2.77;;;20.10;1.00;;;;;;5039632;28;20432;-87
2023/09/21 08:30:09;;;;;;;2.83;2.53;;;20.10;1.00;;;;;;5036606;28;20429;-74
2023/09/21 08:32:55;;;;;;;3.53;2.80;;;20.20;1.00;;;;;;5030656;28;20179;-74
2023/09/21 08:35:21;;;;;;;4.33;2.50;;;20.20;1.00;;;;;;5048453;28;20443;-74
2023/09/21 08:37:50;;;;;;;5.60;3.10;;;20.20;1.00;;;;;;5047374;28;20469;-75
2023/09/21 08:40:21;;;;;;;10.77;3.30;;;20.20;1.00;;;;;;5042506;28;20178;-74
2023/09/21 08:42:52;;;;;;;8.33;3.10;;;20.30;1.00;;;;;;5034995;28;20824;-74
2023/09/21 08:45:21;;;;;;;10.17;3.10;;;20.30;1.00;;;;;;5036448;28;20447;-73
2023/09/21 08:47:48;;;;;;;7.13;3.30;;;20.40;1.00;;;;;;5023712;28;20432;-73
2023/09/21 08:50:13;;;;;;;3.70;2.90;;;20.40;1.00;;;;;;5034349;28;20468;-73
2023/09/21 08:52:44;;;;;;;3.77;2.77;;;20.40;1.00;;;;;;5029005;28;20438;-73
2023/09/21 08:55:11;;;;;;;5.00;2.77;;;20.50;1.00;;;;;;5031418;28;20452;-75
2023/09/21 08:57:38;;;;;;;6.33;2.70;;;20.50;1.00;;;;;;5035329;28;20433;-74
2023/09/21 09:00:08;;;;;;;4.43;3.07;;;20.50;1.00;;;;;;5036749;28;20437;-74
2023/09/21 09:02:56;;;;;;;7.53;2.90;;;20.50;1.00;;;;;;5047034;28;20980;-75
2023/09/21 09:05:23;;;;;;;7.43;3.13;;;20.60;1.00;;;;;;5038110;28;20413;-74
2023/09/21 09:07:48;;;;;;;4.37;2.80;;;20.60;1.00;;;;;;5036202;28;20419;-74
2023/09/21 09:10:40;;;;;;;3.10;2.40;;;20.70;1.00;;;;;;5037223;28;20418;-74
2023/09/21 09:13:06;;;;;;;5.90;2.93;;;20.80;1.00;;;;;;5027006;28;20278;-74
2023/09/21 09:15:41;;;;;;;2.93;2.63;;;20.90;1.00;;;;;;5033435;28;20494;-74
2023/09/21 09:18:14;;;;;;;4.70;2.77;;;21.10;1.00;;;;;;5036454;28;20645;-74
2023/09/21 09:20:43;;;;;;;3.70;2.57;;;21.20;1.00;;;;;;5031877;28;20965;-74
2023/09/21 09:23:31;;;;;;;2.90;2.53;;;21.30;1.00;;;;;;5044372;28;20888;-74
2023/09/21 09:25:57;;;;;;;4.63;2.80;;;21.30;1.00;;;;;;5046936;28;20437;-73
2023/09/21 09:28:32;;;;;;;3.53;2.90;;;21.40;1.00;;;;;;5035679;28;20407;-73
2023/09/21 09:31:06;;;;;;;4.23;3.13;;;21.50;1.00;;;;;;5038295;28;20199;-73
2023/09/21 09:33:41;;;;;;;5.67;3.00;;;21.70;1.00;;;;;;5042476;28;20822;-73
2023/09/21 09:36:06;;;;;;;4.20;2.70;;;21.90;1.00;;;;;;5042067;28;20458;-73
2023/09/21 09:38:35;;;;;;;6.37;3.03;;;22.30;1.00;;;;;;5048710;28;20384;-73
2023/09/21 09:41:06;;;;;;;3.13;2.77;;;22.60;1.00;;;;;;5038410;28;20194;-73
2023/09/21 09:43:39;;;;;;;6.50;3.03;;;23.00;1.00;;;;;;5036533;28;20481;-73
2023/09/21 09:46:08;;;;;;;6.70;2.70;;;23.20;1.00;;;;;;5036366;28;20437;-73
2023/09/21 09:48:36;;;;;;;2.40;2.20;;;23.50;1.00;;;;;;5022764;28;20413;-73
2023/09/21 09:51:09;;;;;;;3.97;2.33;;;23.70;1.00;;;;;;5036405;28;20828;-73
2023/09/21 09:53:40;;;;;;;6.93;3.27;;;23.80;1.00;;;;;;5035966;28;20441;-73
2023/09/21 09:56:10;;;;;;;5.83;4.43;;;23.80;1.00;;;;;;5037257;28;20492;-75
2023/09/21 09:58:42;;;;;;;9.47;3.13;;;23.80;1.00;;;;;;5036154;28;21262;-75
2023/09/21 10:01:12;;;;;;;12.40;3.07;;;23.90;1.00;;;;;;5033877;28;20436;-74
2023/09/21 10:03:52;;;;;;;7.50;2.80;;;24.00;1.00;;;;;;5039255;28;20422;-75
2023/09/21 10:06:20;;;;;;;8.60;3.30;;;24.20;1.00;;;;;;5041333;28;20453;-75
2023/09/21 10:08:46;;;;;;;11.77;3.30;;;24.30;1.00;;;;;;5045440;28;20426;-75
2023/09/21 10:11:13;;;;;;;6.27;3.23;;;24.50;1.00;;;;;;5036850;28;20495;-73
2023/09/21 10:13:52;;;;;;;9.60;3.00;;;24.70;1.00;;;;;;5025421;28;20477;-73
2023/09/21 10:16:20;;;;;;;3.80;2.70;;;24.80;1.00;;;;;;5031769;28;20472;-73
2023/09/21 10:18:57;;;;;;;7.43;2.37;;;24.90;1.00;;;;;;5048109;28;20408;-73
2023/09/21 10:21:31;;;;;;;2.83;2.27;;;25.00;1.00;;;;;;5032291;28;20422;-73
2023/09/21 10:24:15;;;;;;;3.63;2.47;;;25.10;1.00;;;;;;5049478;28;20481;-73
2023/09/21 10:27:03;;;;;;;3.50;2.30;;;25.00;1.00;;;;;;5030628;28;20442;-76
2023/09/21 10:29:38;;;;;;;3.83;1.93;;;25.10;1.00;;;;;;5027795;28;20467;-74
2023/09/21 10:32:09;;;;;;;8.30;2.37;;;25.20;1.00;;;;;;5034357;28;20939;-76
2023/09/21 10:34:50;;;;;;;5.40;2.37;;;25.30;1.00;;;;;;5023643;28;20426;-76
2023/09/21 10:37:35;;;;;;;4.93;2.27;;;25.40;1.00;;;;;;5039192;28;20437;-73
2023/09/21 10:40:08;;;;;;;4.67;2.30;;;25.50;1.00;;;;;;5043271;28;20389;-74
2023/09/21 10:42:39;;;;;;;4.60;2.10;;;25.60;1.00;;;;;;5043145;28;20466;-74
2023/09/21 10:45:09;;;;;;;4.57;2.40;;;25.70;1.00;;;;;;5035849;28;20430;-75
2023/09/21 10:47:51;;;;;;;4.17;2.57;;;25.90;1.00;;;;;;5034294;28;20466;-74
2023/09/21 10:50:20;;;;;;;3.90;2.20;;;26.00;1.00;;;;;;5040334;28;20500;-76
2023/09/21 10:52:48;;;;;;;5.10;2.60;;;26.20;1.00;;;;;;5029059;28;20496;-76
2023/09/21 10:55:16;;;;;;;6.70;2.23;;;26.30;1.00;;;;;;5034696;28;20449;-76
2023/09/21 10:57:44;;;;;;;3.67;2.07;;;26.50;1.00;;;;;;5033507;28;20892;-75
2023/09/21 11:00:20;;;;;;;3.47;2.33;;;26.30;1.00;;;;;;5033348;28;20964;-76
2023/09/21 11:02:56;;;;;;;8.37;2.50;;;26.30;1.00;;;;;;5038229;28;20418;-76
2023/09/21 11:05:26;;;;;;;5.57;2.30;;;26.20;1.00;;;;;;5026762;28;20423;-75
2023/09/21 11:07:52;;;;;;;5.80;2.63;;;26.40;1.00;;;;;;5028439;28;20443;-76
2023/09/21 11:10:18;;;;;;;7.00;2.70;;;26.50;1.00;;;;;;5037168;28;20435;-73
2023/09/21 11:12:45;;;;;;;3.30;2.57;;;26.50;1.00;;;;;;5031169;28;20431;-73
2023/09/21 11:15:16;;;;;;;4.20;2.60;;;26.50;1.00;;;;;;5036519;28;20435;-73
2023/09/21 11:17:43;;;;;;;2.60;2.17;;;26.40;1.00;;;;;;5050961;28;20765;-75
2023/09/21 11:20:17;;;;;;;12.43;3.10;;;26.50;1.00;;;;;;5042499;28;20411;-75
2023/09/21 11:22:50;;;;;;;2.10;1.90;;;26.50;1.00;;;;;;5022847;28;20469;-74
2023/09/21 11:25:21;;;;;;;4.10;2.83;;;26.40;1.00;;;;;;5022027;28;20425;-74
2023/09/21 11:27:47;;;;;;;6.87;2.50;;;26.20;1.00;;;;;;5025793;28;20415;-74
2023/09/21 11:30:26;;;;;;;2.37;2.17;;;26.30;1.00;;;;;;5031238;28;20501;-74
2023/09/21 11:32:54;;;;;;;5.67;2.90;;;26.40;1.00;;;;;;5035068;28;20451;-74
2023/09/21 11:35:32;;;;;;;3.20;2.70;;;26.40;1.00;;;;;;5033569;28;20460;-75
2023/09/21 11:37:59;;;;;;;5.63;2.03;;;26.40;1.00;;;;;;5030889;28;20439;-73
2023/09/21 11:40:26;;;;;;;2.60;2.40;;;26.40;1.00;;;;;;5033330;28;20488;-73
2023/09/21 11:43:01;;;;;;;4.83;2.83;;;26.40;1.00;;;;;;5033390;28;20427;-73
2023/09/21 11:45:34;;;;;;;2.40;2.17;;;26.40;1.00;;;;;;5032103;28;20454;-73
2023/09/21 11:48:08;;;;;;;6.43;2.37;;;26.40;1.00;;;;;;5026993;28;20406;-74
2023/09/21 11:50:34;;;;;;;14.93;2.47;;;26.50;1.00;;;;;;5034308;28;20458;-75
2023/09/21 11:53:06;;;;;;;8.90;2.40;;;26.40;1.00;;;;;;5027860;28;20929;-72
2023/09/21 11:55:32;;;;;;;3.60;2.20;;;26.40;1.00;;;;;;5033019;28;20452;-72
2023/09/21 11:58:11;;;;;;;28.67;3.23;;;26.40;1.00;;;;;;5034862;28;20502;-72
2023/09/21 12:00:43;;;;;;;8.00;2.77;;;26.40;1.00;;;;;;5033623;28;20588;-72
2023/09/21 12:03:18;;;;;;;4.03;2.10;;;26.50;1.00;;;;;;5028026;28;20442;-72
2023/09/21 12:05:44;;;;;;;7.23;2.27;;;26.60;1.00;;;;;;5037980;28;20758;-72
2023/09/21 12:08:19;;;;;;;2.87;2.07;;;26.70;1.00;;;;;;5027977;28;20507;-74
2023/09/21 12:10:48;;;;;;;6.93;2.27;;;26.80;1.00;;;;;;5039972;28;20493;-74
2023/09/21 12:13:14;;;;;;;5.77;2.10;;;26.80;1.00;;;;;;5022581;28;20431;-77
2023/09/21 12:15:41;;;;;;;2.47;2.10;;;26.90;1.00;;;;;;5019690;28;20463;-76
2023/09/21 12:18:10;;;;;;;3.70;2.10;;;26.90;1.00;;;;;;5028748;28;20432;-76
2023/09/21 12:20:36;;;;;;;6.33;1.87;;;27.00;1.00;;;;;;5030642;28;20465;-76
2023/09/21 12:23:05;;;;;;;2.57;2.17;;;27.00;1.00;;;;;;5033376;28;20404;-76
2023/09/21 12:25:32;;;;;;;3.20;1.90;;;27.00;1.00;;;;;;5044033;28;20457;-88
2023/09/21 12:27:58;;;;;;;4.73;2.17;;;27.10;1.00;;;;;;5037941;28;20439;-88
2023/09/21 12:30:24;;;;;;;6.00;2.40;;;27.10;1.00;;;;;;5028049;28;20481;-88
2023/09/21 12:33:03;;;;;;;3.07;1.83;;;27.10;1.00;;;;;;5031405;28;20193;-87
2023/09/21 12:35:30;;;;;;;3.93;1.90;;;27.10;1.00;;;;;;5036238;28;20456;-90
2023/09/21 12:38:02;;;;;;;2.63;1.83;;;27.10;1.00;;;;;;5035150;28;20439;-88
2023/09/21 12:40:28;;;;;;;3.37;2.00;;;27.20;1.00;;;;;;5053843;28;20399;-88
2023/09/21 12:42:54;;;;;;;4.40;2.10;;;27.10;1.00;;;;;;5052003;28;20406;-87
2023/09/21 12:45:44;;;;;;;3.70;1.87;;;27.10;1.00;;;;;;5031965;28;20432;-87
2023/09/21 12:49:02;;;;;;;2.07;1.87;;;27.10;1.00;;;;;;5021229;28;20788;-88
2023/09/21 12:54:50;;;;;;;2.40;2.20;;;27.40;1.00;;;;;;5039919;28;20495;-88
2023/09/21 12:57:18;;;;;;;7.60;2.10;;;27.80;1.00;;;;;;5037174;28;20534;-88
2023/09/21 12:59:44;;;;;;;3.63;2.27;;;28.20;1.00;;;;;;5039293;28;20199;-88
2023/09/21 13:02:12;;;;;;;1.70;1.60;;;28.30;1.00;;;;;;5047656;28;20441;-87
2023/09/21 13:04:38;;;;;;;2.07;1.80;;;28.40;1.00;;;;;;5036480;28;20182;-86
2023/09/21 13:07:04;;;;;;;2.20;1.73;;;28.70;1.00;;;;;;5048103;28;20452;-86
2023/09/21 13:09:30;;;;;;;10.20;2.10;;;28.80;1.00;;;;;;5040598;28;20467;-88
2023/09/21 13:11:56;;;;;;;3.73;1.90;;;28.70;1.00;;;;;;5034189;28;20632;-89
2023/09/21 13:14:23;;;;;;;4.90;2.00;;;28.70;1.00;;;;;;5042262;28;20520;-89
2023/09/21 13:16:49;;;;;;;1.87;1.77;;;;;;;;;;5032306;28;20469;-88
2023/09/21 13:19:14;;;;;;;4.33;1.70;;;28.60;1.00;;;;;;5042609;28;20433;-89
2023/09/21 13:21:41;;;;;;;1.97;1.60;;;28.00;1.00;;;;;;5032557;28;21025;-88
2023/09/21 13:30:50;;;;;;;3.27;1.60;;;28.10;1.00;;;;;;5054354;28;20400;-86
2023/09/21 13:37:02;;;;;;;1.50;1.40;;;28.20;1.00;;;;;;5038937;28;20259;-86
2023/09/21 13:39:32;;;;;;;1.70;1.50;;;28.20;1.00;;;;;;5044857;28;20427;-88
2023/09/21 13:42:39;;;;;;;2.47;1.70;;;27.90;1.00;;;;;;5042256;28;20940;-90
2023/09/21 13:45:37;;;;;;;1.83;1.57;;;27.80;1.00;;;;;;5055004;28;20931;-89
2023/09/21 13:51:25;;;;;;;1.53;1.10;;;27.80;1.00;;;;;;5032076;28;20924;-88
2023/09/21 13:54:31;;;;;;;10.13;1.57;;;27.70;1.00;;;;;;5032100;28;20423;-89
2023/09/21 14:00:21;;;;;;;2.77;1.30;;;27.70;1.00;;;;;;5030917;28;20415;-89
2023/09/21 14:07:03;;;;;;;1.43;1.00;;;27.60;1.00;;;;;;5032844;28;20475;-87
2023/09/21 14:13:19;;;;;;;1.23;1.13;;;27.40;1.00;;;;;;5030880;28;20893;-88
2023/09/21 14:16:13;;;;;;;1.83;1.30;;;27.30;1.00;;;;;;5046582;28;20453;-88
2023/09/21 14:22:01;;;;;;;3.43;1.33;;;27.40;1.00;;;;;;5028229;28;20411;-88
2023/09/21 14:25:19;;;;;;;3.27;1.30;;;27.50;1.00;;;;;;5033204;28;20431;-86
2023/09/21 14:27:45;;;;;;;2.07;1.40;;;27.40;1.00;;;;;;5040446;28;20183;-87
2023/09/21 14:33:38;;;;;;;68.93;24.60;;;27.30;1.00;;;;;;5042582;28;20185;-87
2023/09/21 14:39:25;;;;;;;6.57;3.23;;;27.00;1.00;;;;;;5035148;28;20375;-86
2023/09/21 14:42:31;;;;;;;3.70;1.30;;;27.00;1.00;;;;;;5021197;28;20796;-87
2023/09/21 14:49:01;;;;;;;5.17;1.47;;;27.30;1.00;;;;;;5015322;28;20397;-89
2023/09/21 15:01:59;;;;;;;2.40;1.20;;;27.90;1.00;;;;;;5042600;28;20437;-88
2023/09/21 15:04:27;;;;;;;2.50;1.50;;;27.80;1.00;;;;;;5041251;28;20414;-88
2023/09/21 15:07:02;;;;;;;1.77;1.30;;;27.70;1.00;;;;;;5040234;28;20414;-86
2023/09/21 15:16:11;;;;;;;1.67;1.30;;;27.40;1.00;;;;;;5019660;28;20450;-87
2023/09/21 15:25:21;;;;;;;3.90;1.00;;;27.30;1.00;;;;;;5017761;28;20435;-86
2023/09/21 15:27:50;;;;;;;1.20;1.10;;;27.30;1.00;;;;;;5015584;28;20941;-88
2023/09/21 15:30:49;;;;;;;2.60;1.10;;;27.20;1.00;;;;;;5014881;28;20221;-86
2023/09/21 15:33:32;;;;;;;1.47;1.30;;;26.90;1.00;;;;;;5032373;28;20430;-90
2023/09/21 15:42:42;;;;;;;2.90;1.30;;;26.20;1.00;;;;;;5028150;28;20418;-87
2023/09/21 15:46:04;;;;;;;1.57;1.20;;;25.90;1.00;;;;;;5030698;28;20422;-89
2023/09/21 15:49:04;;;;;;;1.73;1.20;;;25.80;1.00;;;;;;5048902;28;20427;-88
2023/09/21 15:51:55;;;;;;;5.10;1.47;;;25.70;1.00;;;;;;5031249;28;20441;-88
2023/09/21 16:04:49;;;;;;;3.70;1.50;;;25.60;1.00;;;;;;5028692;28;20445;-89
2023/09/21 16:10:44;;;;;;;3.30;1.10;;;25.30;1.00;;;;;;5033267;28;20458;-88
2023/09/21 16:20:13;;;;;;;1.80;1.70;;;24.90;1.00;;;;;;5030532;28;20444;-88
2023/09/21 16:22:56;;;;;;;2.53;1.53;;;24.70;1.00;;;;;;5050253;28;20435;-88
2023/09/21 16:25:43;;;;;;;1.30;1.20;;;24.60;1.00;;;;;;5043358;28;20432;-88
2023/09/21 16:28:11;;;;;;;6.10;1.43;;;24.40;1.00;;;;;;5039149;28;20428;-88
2023/09/21 16:33:58;;;;;;;1.60;1.30;;;24.00;1.00;;;;;;5020986;28;20974;-89
2023/09/21 16:39:51;;;;;;;8.10;1.50;;;23.90;1.00;;;;;;5037356;28;20184;-87
2023/09/21 16:42:44;;;;;;;1.60;1.50;;;23.70;1.00;;;;;;5036249;28;20430;-88
2023/09/21 16:45:20;;;;;;;3.20;1.10;;;23.60;1.00;;;;;;5036427;28;20430;-88
2023/09/21 16:47:56;;;;;;;2.67;1.57;;;23.50;1.00;;;;;;5049591;28;20923;-90
2023/09/21 16:51:13;;;;;;;1.30;1.27;;;23.30;1.00;;;;;;5034111;28;20444;-90